Nunoa, Chile
Current Conditions -  °F | °C
As of 12:00 PM on Monday 26 Jan 2015 (Local Time) from SCEL Reporting Station
Clear Clear  
Wind Chill: 84°   Ceiling: Unl
Heat Index: 84°   Visibility: 6mi
Dew Point: 50°   Wind: 6mph
Humidity: 30%   Direction: 180°S
Pressure: 29.88"   Gusts: NA
Location:  33.47°S, 70.6°W
Report Text: SCEL 261600Z 18005KT CAVOK 29/10 Q1012 NOSIG
Loading
Personal Weather Stations






























Interactive Weather Map New forecast layout! Learn more

10-Day Weather Forecast

Advertisements
Track Severe Weather on mobile